sensor_id;sensor_type;location;lat;lon;timestamp;P1;durP1;ratioP1;P2;durP2;ratioP2
66593;SDS011;53450;42.584;23.366;2023-09-19T00:01:41;9.07;;;5.10;;
66593;SDS011;53450;42.584;23.366;2023-09-19T00:04:10;6.32;;;4.38;;
66593;SDS011;53450;42.584;23.366;2023-09-19T00:06:39;6.68;;;4.45;;
66593;SDS011;53450;42.584;23.366;2023-09-19T00:09:05;5.68;;;4.57;;
66593;SDS011;53450;42.584;23.366;2023-09-19T00:11:36;4.80;;;4.38;;
66593;SDS011;53450;42.584;23.366;2023-09-19T00:14:03;6.20;;;4.70;;
66593;SDS011;53450;42.584;23.366;2023-09-19T00:16:30;6.70;;;4.97;;
66593;SDS011;53450;42.584;23.366;2023-09-19T00:18:57;5.97;;;4.80;;
66593;SDS011;53450;42.584;23.366;2023-09-19T00:21:23;10.02;;;5.20;;
66593;SDS011;53450;42.584;23.366;2023-09-19T00:23:49;6.60;;;5.07;;
66593;SDS011;53450;42.584;23.366;2023-09-19T00:26:16;7.45;;;4.95;;
66593;SDS011;53450;42.584;23.366;2023-09-19T00:28:47;6.00;;;4.80;;
66593;SDS011;53450;42.584;23.366;2023-09-19T00:31:12;7.45;;;5.00;;
66593;SDS011;53450;42.584;23.366;2023-09-19T00:33:38;9.48;;;4.70;;
66593;SDS011;53450;42.584;23.366;2023-09-19T00:36:04;5.53;;;4.95;;
66593;SDS011;53450;42.584;23.366;2023-09-19T00:38:55;12.40;;;5.50;;
66593;SDS011;53450;42.584;23.366;2023-09-19T00:41:46;5.78;;;4.47;;
66593;SDS011;53450;42.584;23.366;2023-09-19T00:47:30;5.43;;;4.50;;
66593;SDS011;53450;42.584;23.366;2023-09-19T00:49:56;15.82;;;4.95;;
66593;SDS011;53450;42.584;23.366;2023-09-19T00:52:22;8.07;;;5.30;;
66593;SDS011;53450;42.584;23.366;2023-09-19T00:54:48;8.65;;;5.57;;
66593;SDS011;53450;42.584;23.366;2023-09-19T00:57:15;5.72;;;4.57;;
66593;SDS011;53450;42.584;23.366;2023-09-19T00:59:44;6.90;;;5.13;;
66593;SDS011;53450;42.584;23.366;2023-09-19T01:02:15;6.65;;;4.82;;
66593;SDS011;53450;42.584;23.366;2023-09-19T01:04:41;8.82;;;5.38;;
66593;SDS011;53450;42.584;23.366;2023-09-19T01:07:07;6.65;;;5.15;;
66593;SDS011;53450;42.584;23.366;2023-09-19T01:09:34;10.18;;;4.60;;
66593;SDS011;53450;42.584;23.366;2023-09-19T01:12:01;9.30;;;5.03;;
66593;SDS011;53450;42.584;23.366;2023-09-19T01:14:57;6.38;;;5.50;;
66593;SDS011;53450;42.584;23.366;2023-09-19T01:20:45;8.15;;;5.60;;
66593;SDS011;53450;42.584;23.366;2023-09-19T01:32:04;9.43;;;5.60;;
66593;SDS011;53450;42.584;23.366;2023-09-19T01:37:29;9.18;;;5.82;;
66593;SDS011;53450;42.584;23.366;2023-09-19T01:42:45;11.55;;;6.55;;
66593;SDS011;53450;42.584;23.366;2023-09-19T01:48:34;7.70;;;6.60;;
66593;SDS011;53450;42.584;23.366;2023-09-19T01:51:10;6.35;;;5.72;;
66593;SDS011;53450;42.584;23.366;2023-09-19T01:56:25;11.38;;;6.38;;
66593;SDS011;53450;42.584;23.366;2023-09-19T01:59:06;13.40;;;6.13;;
66593;SDS011;53450;42.584;23.366;2023-09-19T02:01:35;9.25;;;6.20;;
66593;SDS011;53450;42.584;23.366;2023-09-19T02:04:03;9.02;;;6.05;;
66593;SDS011;53450;42.584;23.366;2023-09-19T02:06:30;8.20;;;7.00;;
66593;SDS011;53450;42.584;23.366;2023-09-19T02:08:57;7.30;;;6.47;;
66593;SDS011;53450;42.584;23.366;2023-09-19T02:11:23;10.05;;;7.00;;
66593;SDS011;53450;42.584;23.366;2023-09-19T02:13:48;14.57;;;6.93;;
66593;SDS011;53450;42.584;23.366;2023-09-19T02:16:19;11.52;;;7.40;;
66593;SDS011;53450;42.584;23.366;2023-09-19T02:18:47;10.82;;;7.97;;
66593;SDS011;53450;42.584;23.366;2023-09-19T02:21:39;9.80;;;6.90;;
66593;SDS011;53450;42.584;23.366;2023-09-19T02:24:30;10.02;;;6.55;;
66593;SDS011;53450;42.584;23.366;2023-09-19T02:26:56;9.80;;;6.97;;
66593;SDS011;53450;42.584;23.366;2023-09-19T02:29:22;8.40;;;7.00;;
66593;SDS011;53450;42.584;23.366;2023-09-19T02:31:48;9.00;;;6.55;;
66593;SDS011;53450;42.584;23.366;2023-09-19T02:34:14;14.65;;;7.80;;
66593;SDS011;53450;42.584;23.366;2023-09-19T02:36:42;10.00;;;7.75;;
66593;SDS011;53450;42.584;23.366;2023-09-19T02:39:09;10.32;;;7.68;;
66593;SDS011;53450;42.584;23.366;2023-09-19T02:41:36;13.35;;;7.47;;
66593;SDS011;53450;42.584;23.366;2023-09-19T02:44:03;8.88;;;6.95;;
66593;SDS011;53450;42.584;23.366;2023-09-19T02:46:36;7.10;;;6.43;;
66593;SDS011;53450;42.584;23.366;2023-09-19T02:49:02;8.85;;;7.43;;
66593;SDS011;53450;42.584;23.366;2023-09-19T02:51:32;10.52;;;6.85;;
66593;SDS011;53450;42.584;23.366;2023-09-19T02:53:59;10.88;;;7.05;;
66593;SDS011;53450;42.584;23.366;2023-09-19T02:56:25;10.75;;;7.13;;
66593;SDS011;53450;42.584;23.366;2023-09-19T02:58:50;8.05;;;6.93;;
66593;SDS011;53450;42.584;23.366;2023-09-19T03:01:17;17.10;;;8.43;;
66593;SDS011;53450;42.584;23.366;2023-09-19T03:03:44;7.82;;;7.03;;
66593;SDS011;53450;42.584;23.366;2023-09-19T03:06:35;11.82;;;8.00;;
66593;SDS011;53450;42.584;23.366;2023-09-19T03:09:04;18.50;;;8.18;;
66593;SDS011;53450;42.584;23.366;2023-09-19T03:11:38;10.15;;;7.88;;
66593;SDS011;53450;42.584;23.366;2023-09-19T03:14:05;9.10;;;7.68;;
66593;SDS011;53450;42.584;23.366;2023-09-19T03:16:31;12.55;;;7.55;;
66593;SDS011;53450;42.584;23.366;2023-09-19T03:18:59;10.57;;;6.68;;
66593;SDS011;53450;42.584;23.366;2023-09-19T03:21:29;11.50;;;7.53;;
66593;SDS011;53450;42.584;23.366;2023-09-19T03:23:56;13.02;;;7.47;;
66593;SDS011;53450;42.584;23.366;2023-09-19T03:26:22;11.80;;;7.22;;
66593;SDS011;53450;42.584;23.366;2023-09-19T03:28:47;13.13;;;7.10;;
66593;SDS011;53450;42.584;23.366;2023-09-19T03:31:13;8.27;;;7.38;;
66593;SDS011;53450;42.584;23.366;2023-09-19T03:33:39;11.20;;;7.22;;
66593;SDS011;53450;42.584;23.366;2023-09-19T03:36:05;9.27;;;7.30;;
66593;SDS011;53450;42.584;23.366;2023-09-19T03:38:31;10.57;;;7.55;;
66593;SDS011;53450;42.584;23.366;2023-09-19T03:40:59;16.33;;;8.88;;
66593;SDS011;53450;42.584;23.366;2023-09-19T03:43:26;11.35;;;7.63;;
66593;SDS011;53450;42.584;23.366;2023-09-19T03:45:53;9.07;;;7.03;;
66593;SDS011;53450;42.584;23.366;2023-09-19T03:48:20;9.90;;;7.43;;
66593;SDS011;53450;42.584;23.366;2023-09-19T03:50:47;10.77;;;6.95;;
66593;SDS011;53450;42.584;23.366;2023-09-19T03:53:14;12.35;;;6.68;;
66593;SDS011;53450;42.584;23.366;2023-09-19T03:55:39;14.70;;;6.97;;
66593;SDS011;53450;42.584;23.366;2023-09-19T03:58:05;13.10;;;6.90;;
66593;SDS011;53450;42.584;23.366;2023-09-19T04:00:31;13.82;;;7.88;;
66593;SDS011;53450;42.584;23.366;2023-09-19T04:02:58;9.23;;;7.97;;
66593;SDS011;53450;42.584;23.366;2023-09-19T04:05:24;9.85;;;7.82;;
66593;SDS011;53450;42.584;23.366;2023-09-19T04:07:50;10.65;;;7.78;;
66593;SDS011;53450;42.584;23.366;2023-09-19T04:10:16;10.50;;;7.90;;
66593;SDS011;53450;42.584;23.366;2023-09-19T04:13:00;18.10;;;9.07;;
66593;SDS011;53450;42.584;23.366;2023-09-19T04:15:27;15.68;;;8.45;;
66593;SDS011;53450;42.584;23.366;2023-09-19T04:17:53;13.65;;;9.10;;
66593;SDS011;53450;42.584;23.366;2023-09-19T04:20:19;11.50;;;8.30;;
66593;SDS011;53450;42.584;23.366;2023-09-19T04:22:45;11.05;;;6.88;;
66593;SDS011;53450;42.584;23.366;2023-09-19T04:25:12;9.50;;;7.57;;
66593;SDS011;53450;42.584;23.366;2023-09-19T04:27:39;13.32;;;8.45;;
66593;SDS011;53450;42.584;23.366;2023-09-19T04:30:06;13.70;;;8.40;;
66593;SDS011;53450;42.584;23.366;2023-09-19T04:32:37;9.27;;;7.30;;
66593;SDS011;53450;42.584;23.366;2023-09-19T04:35:06;11.52;;;7.47;;
66593;SDS011;53450;42.584;23.366;2023-09-19T04:37:35;14.75;;;7.60;;
66593;SDS011;53450;42.584;23.366;2023-09-19T04:40:34;10.25;;;7.32;;
66593;SDS011;53450;42.584;23.366;2023-09-19T04:43:00;19.88;;;9.05;;
66593;SDS011;53450;42.584;23.366;2023-09-19T04:45:27;11.60;;;7.13;;
66593;SDS011;53450;42.584;23.366;2023-09-19T04:47:53;12.00;;;7.50;;
66593;SDS011;53450;42.584;23.366;2023-09-19T04:50:19;13.20;;;7.30;;
66593;SDS011;53450;42.584;23.366;2023-09-19T04:53:12;9.15;;;6.93;;
66593;SDS011;53450;42.584;23.366;2023-09-19T04:55:38;13.65;;;6.88;;
66593;SDS011;53450;42.584;23.366;2023-09-19T04:58:03;8.57;;;7.32;;
66593;SDS011;53450;42.584;23.366;2023-09-19T05:00:29;13.80;;;7.03;;
66593;SDS011;53450;42.584;23.366;2023-09-19T05:02:56;9.82;;;6.40;;
66593;SDS011;53450;42.584;23.366;2023-09-19T05:05:25;8.82;;;6.47;;
66593;SDS011;53450;42.584;23.366;2023-09-19T05:07:51;12.45;;;6.70;;
66593;SDS011;53450;42.584;23.366;2023-09-19T05:10:19;9.52;;;6.15;;
66593;SDS011;53450;42.584;23.366;2023-09-19T05:12:45;9.05;;;5.93;;
66593;SDS011;53450;42.584;23.366;2023-09-19T05:15:13;10.68;;;6.97;;
66593;SDS011;53450;42.584;23.366;2023-09-19T05:17:47;9.30;;;6.80;;
66593;SDS011;53450;42.584;23.366;2023-09-19T05:20:15;11.32;;;7.53;;
66593;SDS011;53450;42.584;23.366;2023-09-19T05:22:59;9.43;;;5.93;;
66593;SDS011;53450;42.584;23.366;2023-09-19T05:25:31;7.93;;;5.82;;
66593;SDS011;53450;42.584;23.366;2023-09-19T05:27:57;12.90;;;5.55;;
66593;SDS011;53450;42.584;23.366;2023-09-19T05:30:25;7.30;;;5.50;;
66593;SDS011;53450;42.584;23.366;2023-09-19T05:32:52;5.75;;;5.20;;
66593;SDS011;53450;42.584;23.366;2023-09-19T05:35:45;5.78;;;4.78;;
66593;SDS011;53450;42.584;23.366;2023-09-19T05:38:13;7.25;;;4.80;;
66593;SDS011;53450;42.584;23.366;2023-09-19T05:40:39;5.28;;;4.68;;
66593;SDS011;53450;42.584;23.366;2023-09-19T05:43:08;4.20;;;3.65;;
66593;SDS011;53450;42.584;23.366;2023-09-19T05:45:34;4.63;;;4.20;;
66593;SDS011;53450;42.584;23.366;2023-09-19T05:48:09;6.60;;;4.20;;
66593;SDS011;53450;42.584;23.366;2023-09-19T05:50:37;5.38;;;4.18;;
66593;SDS011;53450;42.584;23.366;2023-09-19T05:53:03;4.75;;;3.92;;
66593;SDS011;53450;42.584;23.366;2023-09-19T05:55:30;9.80;;;4.25;;
66593;SDS011;53450;42.584;23.366;2023-09-19T05:57:55;6.85;;;4.57;;
66593;SDS011;53450;42.584;23.366;2023-09-19T06:00:23;7.70;;;4.50;;
66593;SDS011;53450;42.584;23.366;2023-09-19T06:02:52;5.57;;;4.15;;
66593;SDS011;53450;42.584;23.366;2023-09-19T06:05:21;4.53;;;3.90;;
66593;SDS011;53450;42.584;23.366;2023-09-19T06:07:47;5.72;;;3.92;;
66593;SDS011;53450;42.584;23.366;2023-09-19T06:10:13;7.15;;;3.97;;
66593;SDS011;53450;42.584;23.366;2023-09-19T06:12:40;4.50;;;3.67;;
66593;SDS011;53450;42.584;23.366;2023-09-19T06:15:08;5.03;;;3.85;;
66593;SDS011;53450;42.584;23.366;2023-09-19T06:17:43;6.13;;;3.80;;
66593;SDS011;53450;42.584;23.366;2023-09-19T06:20:12;8.43;;;4.30;;
66593;SDS011;53450;42.584;23.366;2023-09-19T06:22:38;7.82;;;4.20;;
66593;SDS011;53450;42.584;23.366;2023-09-19T06:25:05;5.53;;;3.80;;
66593;SDS011;53450;42.584;23.366;2023-09-19T06:27:31;5.40;;;3.70;;
66593;SDS011;53450;42.584;23.366;2023-09-19T06:29:57;5.28;;;4.07;;
66593;SDS011;53450;42.584;23.366;2023-09-19T06:32:27;4.50;;;4.07;;
66593;SDS011;53450;42.584;23.366;2023-09-19T06:35:18;7.50;;;4.30;;
66593;SDS011;53450;42.584;23.366;2023-09-19T06:38:10;6.60;;;3.80;;
66593;SDS011;53450;42.584;23.366;2023-09-19T06:40:38;5.53;;;3.92;;
66593;SDS011;53450;42.584;23.366;2023-09-19T06:43:04;4.88;;;4.10;;
66593;SDS011;53450;42.584;23.366;2023-09-19T06:45:31;4.25;;;3.85;;
66593;SDS011;53450;42.584;23.366;2023-09-19T06:47:57;7.75;;;4.32;;
66593;SDS011;53450;42.584;23.366;2023-09-19T06:50:23;4.60;;;3.55;;
66593;SDS011;53450;42.584;23.366;2023-09-19T06:52:52;6.75;;;4.25;;
66593;SDS011;53450;42.584;23.366;2023-09-19T06:55:21;9.20;;;3.65;;
66593;SDS011;53450;42.584;23.366;2023-09-19T06:57:50;6.10;;;3.88;;
66593;SDS011;53450;42.584;23.366;2023-09-19T07:00:41;4.10;;;3.80;;
66593;SDS011;53450;42.584;23.366;2023-09-19T07:03:12;7.95;;;3.85;;
66593;SDS011;53450;42.584;23.366;2023-09-19T07:05:39;5.13;;;3.90;;
66593;SDS011;53450;42.584;23.366;2023-09-19T07:08:06;4.80;;;3.75;;
66593;SDS011;53450;42.584;23.366;2023-09-19T07:10:32;7.53;;;3.80;;
66593;SDS011;53450;42.584;23.366;2023-09-19T07:12:59;4.18;;;3.78;;
66593;SDS011;53450;42.584;23.366;2023-09-19T07:15:25;4.55;;;3.50;;
66593;SDS011;53450;42.584;23.366;2023-09-19T07:17:56;4.05;;;3.33;;
66593;SDS011;53450;42.584;23.366;2023-09-19T07:20:22;3.88;;;3.47;;
66593;SDS011;53450;42.584;23.366;2023-09-19T07:22:51;5.68;;;4.38;;
66593;SDS011;53450;42.584;23.366;2023-09-19T07:25:17;7.93;;;4.60;;
66593;SDS011;53450;42.584;23.366;2023-09-19T07:27:45;5.38;;;3.85;;
66593;SDS011;53450;42.584;23.366;2023-09-19T07:30:11;5.25;;;4.38;;
66593;SDS011;53450;42.584;23.366;2023-09-19T07:32:37;6.13;;;4.40;;
66593;SDS011;53450;42.584;23.366;2023-09-19T07:35:04;6.53;;;3.80;;
66593;SDS011;53450;42.584;23.366;2023-09-19T07:37:33;7.05;;;3.95;;
66593;SDS011;53450;42.584;23.366;2023-09-19T07:39:59;7.75;;;4.32;;
66593;SDS011;53450;42.584;23.366;2023-09-19T07:42:37;8.13;;;5.22;;
66593;SDS011;53450;42.584;23.366;2023-09-19T07:45:04;4.85;;;4.32;;
66593;SDS011;53450;42.584;23.366;2023-09-19T07:47:30;5.18;;;4.68;;
66593;SDS011;53450;42.584;23.366;2023-09-19T07:49:57;7.47;;;4.80;;
66593;SDS011;53450;42.584;23.366;2023-09-19T07:52:25;7.13;;;4.10;;
66593;SDS011;53450;42.584;23.366;2023-09-19T07:54:50;10.65;;;4.72;;
66593;SDS011;53450;42.584;23.366;2023-09-19T07:57:16;10.65;;;4.68;;
66593;SDS011;53450;42.584;23.366;2023-09-19T07:59:41;9.25;;;4.72;;
66593;SDS011;53450;42.584;23.366;2023-09-19T08:02:08;10.40;;;5.07;;
66593;SDS011;53450;42.584;23.366;2023-09-19T08:04:44;6.45;;;4.80;;
66593;SDS011;53450;42.584;23.366;2023-09-19T08:07:39;16.02;;;5.25;;
66593;SDS011;53450;42.584;23.366;2023-09-19T08:10:31;8.57;;;4.53;;
66593;SDS011;53450;42.584;23.366;2023-09-19T08:13:00;9.65;;;4.30;;
66593;SDS011;53450;42.584;23.366;2023-09-19T08:15:27;8.88;;;4.80;;
66593;SDS011;53450;42.584;23.366;2023-09-19T08:17:53;9.68;;;5.45;;
66593;SDS011;53450;42.584;23.366;2023-09-19T08:20:21;18.00;;;5.68;;
66593;SDS011;53450;42.584;23.366;2023-09-19T08:22:47;15.07;;;5.18;;
66593;SDS011;53450;42.584;23.366;2023-09-19T08:25:15;18.05;;;7.28;;
66593;SDS011;53450;42.584;23.366;2023-09-19T08:27:43;9.48;;;5.25;;
66593;SDS011;53450;42.584;23.366;2023-09-19T08:30:13;6.95;;;4.53;;
66593;SDS011;53450;42.584;23.366;2023-09-19T08:32:49;4.43;;;3.95;;
66593;SDS011;53450;42.584;23.366;2023-09-19T08:35:24;13.73;;;4.70;;
66593;SDS011;53450;42.584;23.366;2023-09-19T08:37:50;15.93;;;4.55;;
66593;SDS011;53450;42.584;23.366;2023-09-19T08:40:16;7.45;;;4.45;;
66593;SDS011;53450;42.584;23.366;2023-09-19T08:42:55;9.07;;;4.18;;
66593;SDS011;53450;42.584;23.366;2023-09-19T08:45:22;5.43;;;3.83;;
66593;SDS011;53450;42.584;23.366;2023-09-19T08:48:13;27.35;;;4.90;;
66593;SDS011;53450;42.584;23.366;2023-09-19T08:53:21;10.80;;;4.80;;
66593;SDS011;53450;42.584;23.366;2023-09-19T08:55:53;5.75;;;4.47;;
66593;SDS011;53450;42.584;23.366;2023-09-19T08:58:27;6.85;;;4.35;;
66593;SDS011;53450;42.584;23.366;2023-09-19T09:00:58;7.40;;;4.47;;
66593;SDS011;53450;42.584;23.366;2023-09-19T09:03:26;7.45;;;4.10;;
66593;SDS011;53450;42.584;23.366;2023-09-19T09:05:57;7.40;;;5.20;;
66593;SDS011;53450;42.584;23.366;2023-09-19T09:08:23;7.00;;;4.28;;
66593;SDS011;53450;42.584;23.366;2023-09-19T09:10:50;8.00;;;4.25;;
66593;SDS011;53450;42.584;23.366;2023-09-19T09:13:16;5.07;;;4.15;;
66593;SDS011;53450;42.584;23.366;2023-09-19T09:15:43;5.32;;;3.85;;
66593;SDS011;53450;42.584;23.366;2023-09-19T09:18:10;12.50;;;5.18;;
66593;SDS011;53450;42.584;23.366;2023-09-19T09:20:35;5.85;;;4.13;;
66593;SDS011;53450;42.584;23.366;2023-09-19T09:23:01;5.95;;;3.53;;
66593;SDS011;53450;42.584;23.366;2023-09-19T09:25:47;12.25;;;3.88;;
66593;SDS011;53450;42.584;23.366;2023-09-19T09:28:46;5.18;;;3.83;;
66593;SDS011;53450;42.584;23.366;2023-09-19T09:31:40;5.75;;;3.50;;
66593;SDS011;53450;42.584;23.366;2023-09-19T09:34:06;4.90;;;4.00;;
66593;SDS011;53450;42.584;23.366;2023-09-19T09:36:33;6.70;;;3.42;;
66593;SDS011;53450;42.584;23.366;2023-09-19T09:39:02;9.18;;;3.83;;
66593;SDS011;53450;42.584;23.366;2023-09-19T09:41:43;6.53;;;4.20;;
66593;SDS011;53450;42.584;23.366;2023-09-19T09:44:27;4.90;;;3.80;;
66593;SDS011;53450;42.584;23.366;2023-09-19T09:46:57;6.35;;;3.80;;
66593;SDS011;53450;42.584;23.366;2023-09-19T09:49:47;9.80;;;4.28;;
66593;SDS011;53450;42.584;23.366;2023-09-19T09:52:44;11.02;;;4.20;;
66593;SDS011;53450;42.584;23.366;2023-09-19T09:55:10;10.32;;;4.45;;
66593;SDS011;53450;42.584;23.366;2023-09-19T09:57:36;4.30;;;3.40;;
66593;SDS011;53450;42.584;23.366;2023-09-19T10:00:06;10.27;;;4.97;;
66593;SDS011;53450;42.584;23.366;2023-09-19T10:02:41;8.88;;;4.10;;
66593;SDS011;53450;42.584;23.366;2023-09-19T10:05:13;5.38;;;3.70;;
66593;SDS011;53450;42.584;23.366;2023-09-19T10:07:47;11.43;;;3.90;;
66593;SDS011;53450;42.584;23.366;2023-09-19T10:10:35;7.70;;;3.70;;
66593;SDS011;53450;42.584;23.366;2023-09-19T10:13:09;4.90;;;3.90;;
66593;SDS011;53450;42.584;23.366;2023-09-19T10:15:44;8.95;;;4.10;;
66593;SDS011;53450;42.584;23.366;2023-09-19T10:18:20;8.38;;;4.50;;
66593;SDS011;53450;42.584;23.366;2023-09-19T10:20:50;5.03;;;3.65;;
66593;SDS011;53450;42.584;23.366;2023-09-19T10:23:17;6.75;;;3.80;;
66593;SDS011;53450;42.584;23.366;2023-09-19T10:25:51;8.48;;;4.30;;
66593;SDS011;53450;42.584;23.366;2023-09-19T10:28:19;9.95;;;3.78;;
66593;SDS011;53450;42.584;23.366;2023-09-19T10:30:47;5.50;;;3.90;;
66593;SDS011;53450;42.584;23.366;2023-09-19T10:33:18;10.43;;;4.93;;
66593;SDS011;53450;42.584;23.366;2023-09-19T10:35:51;12.50;;;4.00;;
66593;SDS011;53450;42.584;23.366;2023-09-19T10:38:17;4.05;;;3.58;;
66593;SDS011;53450;42.584;23.366;2023-09-19T10:40:50;6.20;;;3.90;;
66593;SDS011;53450;42.584;23.366;2023-09-19T10:43:18;4.60;;;3.72;;
66593;SDS011;53450;42.584;23.366;2023-09-19T10:45:53;20.15;;;4.43;;
66593;SDS011;53450;42.584;23.366;2023-09-19T10:48:25;4.63;;;3.53;;
66593;SDS011;53450;42.584;23.366;2023-09-19T10:54:08;7.95;;;3.80;;
66593;SDS011;53450;42.584;23.366;2023-09-19T10:57:03;8.45;;;4.00;;
66593;SDS011;53450;42.584;23.366;2023-09-19T10:59:30;13.18;;;4.65;;
66593;SDS011;53450;42.584;23.366;2023-09-19T11:02:17;5.05;;;3.90;;
66593;SDS011;53450;42.584;23.366;2023-09-19T11:05:12;6.03;;;4.10;;
66593;SDS011;53450;42.584;23.366;2023-09-19T11:07:57;8.18;;;4.18;;
66593;SDS011;53450;42.584;23.366;2023-09-19T11:16:03;5.60;;;4.20;;
66593;SDS011;53450;42.584;23.366;2023-09-19T11:26:41;4.35;;;3.83;;
66593;SDS011;53450;42.584;23.366;2023-09-19T11:29:26;11.90;;;4.03;;
66593;SDS011;53450;42.584;23.366;2023-09-19T11:31:58;7.28;;;3.92;;
66593;SDS011;53450;42.584;23.366;2023-09-19T11:40:09;4.90;;;3.72;;
66593;SDS011;53450;42.584;23.366;2023-09-19T11:42:47;5.18;;;4.28;;
66593;SDS011;53450;42.584;23.366;2023-09-19T11:48:15;6.50;;;3.58;;
66593;SDS011;53450;42.584;23.366;2023-09-19T11:50:44;6.25;;;4.03;;
66593;SDS011;53450;42.584;23.366;2023-09-19T11:53:14;5.00;;;3.90;;
66593;SDS011;53450;42.584;23.366;2023-09-19T11:55:41;4.22;;;3.83;;
66593;SDS011;53450;42.584;23.366;2023-09-19T11:58:09;10.80;;;3.58;;
66593;SDS011;53450;42.584;23.366;2023-09-19T12:00:38;11.18;;;3.63;;
66593;SDS011;53450;42.584;23.366;2023-09-19T12:03:09;4.53;;;3.47;;
66593;SDS011;53450;42.584;23.366;2023-09-19T12:05:36;6.82;;;3.90;;
66593;SDS011;53450;42.584;23.366;2023-09-19T12:08:07;10.43;;;3.90;;
66593;SDS011;53450;42.584;23.366;2023-09-19T12:10:48;6.72;;;4.13;;
66593;SDS011;53450;42.584;23.366;2023-09-19T12:13:19;9.18;;;4.45;;
66593;SDS011;53450;42.584;23.366;2023-09-19T12:15:46;8.73;;;4.43;;
66593;SDS011;53450;42.584;23.366;2023-09-19T12:18:25;6.75;;;4.03;;
66593;SDS011;53450;42.584;23.366;2023-09-19T12:20:52;11.15;;;4.00;;
66593;SDS011;53450;42.584;23.366;2023-09-19T12:23:19;6.88;;;3.83;;
66593;SDS011;53450;42.584;23.366;2023-09-19T12:25:45;15.57;;;4.53;;
66593;SDS011;53450;42.584;23.366;2023-09-19T12:28:13;6.07;;;3.55;;
66593;SDS011;53450;42.584;23.366;2023-09-19T12:30:39;6.60;;;3.80;;
66593;SDS011;53450;42.584;23.366;2023-09-19T12:33:16;4.97;;;4.03;;
66593;SDS011;53450;42.584;23.366;2023-09-19T12:35:44;7.00;;;4.13;;
66593;SDS011;53450;42.584;23.366;2023-09-19T12:38:10;4.88;;;3.72;;
66593;SDS011;53450;42.584;23.366;2023-09-19T12:40:37;4.95;;;4.13;;
66593;SDS011;53450;42.584;23.366;2023-09-19T12:43:07;6.65;;;3.72;;
66593;SDS011;53450;42.584;23.366;2023-09-19T12:45:34;12.65;;;4.05;;
66593;SDS011;53450;42.584;23.366;2023-09-19T12:48:18;6.68;;;3.50;;
66593;SDS011;53450;42.584;23.366;2023-09-19T12:51:01;20.67;;;7.43;;
66593;SDS011;53450;42.584;23.366;2023-09-19T12:53:35;9.30;;;4.65;;
66593;SDS011;53450;42.584;23.366;2023-09-19T12:56:14;5.32;;;3.78;;
66593;SDS011;53450;42.584;23.366;2023-09-19T12:58:53;6.75;;;3.70;;
66593;SDS011;53450;42.584;23.366;2023-09-19T13:01:22;7.97;;;4.07;;
66593;SDS011;53450;42.584;23.366;2023-09-19T13:06:47;7.82;;;4.20;;
66593;SDS011;53450;42.584;23.366;2023-09-19T13:09:35;10.05;;;4.05;;
66593;SDS011;53450;42.584;23.366;2023-09-19T13:12:03;6.85;;;3.72;;
66593;SDS011;53450;42.584;23.366;2023-09-19T13:14:38;10.77;;;3.97;;
66593;SDS011;53450;42.584;23.366;2023-09-19T13:17:06;7.95;;;4.05;;
66593;SDS011;53450;42.584;23.366;2023-09-19T13:19:50;7.93;;;4.45;;
66593;SDS011;53450;42.584;23.366;2023-09-19T13:25:38;5.55;;;3.67;;
66593;SDS011;53450;42.584;23.366;2023-09-19T13:30:56;5.53;;;4.00;;
66593;SDS011;53450;42.584;23.366;2023-09-19T13:33:22;3.97;;;3.45;;
66593;SDS011;53450;42.584;23.366;2023-09-19T13:35:47;10.02;;;5.18;;
66593;SDS011;53450;42.584;23.366;2023-09-19T13:38:13;7.93;;;4.10;;
66593;SDS011;53450;42.584;23.366;2023-09-19T13:40:39;18.00;;;4.18;;
66593;SDS011;53450;42.584;23.366;2023-09-19T13:43:07;5.05;;;3.70;;
66593;SDS011;53450;42.584;23.366;2023-09-19T13:45:58;11.85;;;5.22;;
66593;SDS011;53450;42.584;23.366;2023-09-19T13:48:49;12.48;;;5.10;;
66593;SDS011;53450;42.584;23.366;2023-09-19T13:51:18;9.88;;;4.32;;
66593;SDS011;53450;42.584;23.366;2023-09-19T13:53:46;10.20;;;4.80;;
66593;SDS011;53450;42.584;23.366;2023-09-19T13:56:12;4.10;;;3.63;;
66593;SDS011;53450;42.584;23.366;2023-09-19T13:58:40;9.20;;;4.18;;
66593;SDS011;53450;42.584;23.366;2023-09-19T14:01:09;11.45;;;4.10;;
66593;SDS011;53450;42.584;23.366;2023-09-19T14:03:38;8.38;;;4.22;;
66593;SDS011;53450;42.584;23.366;2023-09-19T14:06:04;8.05;;;4.05;;
66593;SDS011;53450;42.584;23.366;2023-09-19T14:08:30;11.48;;;4.05;;
66593;SDS011;53450;42.584;23.366;2023-09-19T14:10:55;9.02;;;4.20;;
66593;SDS011;53450;42.584;23.366;2023-09-19T14:13:24;10.48;;;3.95;;
66593;SDS011;53450;42.584;23.366;2023-09-19T14:15:50;6.40;;;4.13;;
66593;SDS011;53450;42.584;23.366;2023-09-19T14:18:16;5.32;;;4.15;;
66593;SDS011;53450;42.584;23.366;2023-09-19T14:20:47;4.32;;;3.92;;
66593;SDS011;53450;42.584;23.366;2023-09-19T14:23:13;10.18;;;4.40;;
66593;SDS011;53450;42.584;23.366;2023-09-19T14:25:41;7.70;;;4.03;;
66593;SDS011;53450;42.584;23.366;2023-09-19T14:28:07;17.70;;;4.50;;
66593;SDS011;53450;42.584;23.366;2023-09-19T14:30:36;5.93;;;4.47;;
66593;SDS011;53450;42.584;23.366;2023-09-19T14:33:02;6.75;;;4.20;;
66593;SDS011;53450;42.584;23.366;2023-09-19T14:35:29;11.48;;;4.28;;
66593;SDS011;53450;42.584;23.366;2023-09-19T14:37:54;16.77;;;4.38;;
66593;SDS011;53450;42.584;23.366;2023-09-19T14:40:20;7.05;;;4.20;;
66593;SDS011;53450;42.584;23.366;2023-09-19T14:42:47;15.80;;;5.13;;
66593;SDS011;53450;42.584;23.366;2023-09-19T14:45:13;13.05;;;6.00;;
66593;SDS011;53450;42.584;23.366;2023-09-19T14:47:43;11.02;;;4.03;;
66593;SDS011;53450;42.584;23.366;2023-09-19T14:50:11;13.93;;;4.38;;
66593;SDS011;53450;42.584;23.366;2023-09-19T14:52:37;8.10;;;4.63;;
66593;SDS011;53450;42.584;23.366;2023-09-19T14:55:05;9.90;;;4.53;;
66593;SDS011;53450;42.584;23.366;2023-09-19T14:57:34;13.32;;;4.70;;
66593;SDS011;53450;42.584;23.366;2023-09-19T14:59:59;11.07;;;4.80;;
66593;SDS011;53450;42.584;23.366;2023-09-19T15:02:25;10.05;;;5.00;;
66593;SDS011;53450;42.584;23.366;2023-09-19T15:04:51;6.65;;;4.22;;
66593;SDS011;53450;42.584;23.366;2023-09-19T15:07:17;9.25;;;4.82;;
66593;SDS011;53450;42.584;23.366;2023-09-19T15:10:09;9.48;;;4.72;;
66593;SDS011;53450;42.584;23.366;2023-09-19T15:12:59;7.45;;;4.80;;
66593;SDS011;53450;42.584;23.366;2023-09-19T15:15:50;6.10;;;4.65;;
66593;SDS011;53450;42.584;23.366;2023-09-19T15:18:42;11.98;;;5.03;;
66593;SDS011;53450;42.584;23.366;2023-09-19T15:21:11;16.27;;;6.00;;
66593;SDS011;53450;42.584;23.366;2023-09-19T15:23:37;13.52;;;5.78;;
66593;SDS011;53450;42.584;23.366;2023-09-19T15:26:05;8.57;;;5.95;;
66593;SDS011;53450;42.584;23.366;2023-09-19T15:28:32;15.48;;;7.47;;
66593;SDS011;53450;42.584;23.366;2023-09-19T15:30:59;21.52;;;9.77;;
66593;SDS011;53450;42.584;23.366;2023-09-19T15:33:29;12.98;;;7.75;;
66593;SDS011;53450;42.584;23.366;2023-09-19T15:41:22;21.02;;;8.35;;
66593;SDS011;53450;42.584;23.366;2023-09-19T15:43:49;11.73;;;6.68;;
66593;SDS011;53450;42.584;23.366;2023-09-19T15:46:15;25.80;;;14.63;;
66593;SDS011;53450;42.584;23.366;2023-09-19T15:48:41;22.52;;;12.77;;
66593;SDS011;53450;42.584;23.366;2023-09-19T15:51:10;36.45;;;11.45;;
66593;SDS011;53450;42.584;23.366;2023-09-19T15:53:42;24.63;;;10.13;;
66593;SDS011;53450;42.584;23.366;2023-09-19T15:56:17;21.63;;;8.18;;
66593;SDS011;53450;42.584;23.366;2023-09-19T15:58:46;11.52;;;6.32;;
66593;SDS011;53450;42.584;23.366;2023-09-19T16:01:13;12.63;;;7.05;;